createdAt,value
2018-01-30T00:00:59.186Z,6.20
2018-01-30T00:03:26.682Z,6.10
2018-01-30T00:05:54.202Z,6.10
2018-01-30T00:08:21.699Z,6.00
2018-01-30T00:10:49.230Z,6.00
2018-01-30T00:13:17.495Z,5.90
2018-01-30T00:15:45.801Z,5.90
2018-01-30T00:18:14.075Z,5.90
2018-01-30T00:20:41.598Z,5.90
2018-01-30T00:23:09.099Z,5.80
2018-01-30T00:25:36.642Z,5.70
2018-01-30T00:28:04.149Z,5.70
2018-01-30T00:30:31.654Z,5.80
2018-01-30T00:32:59.950Z,5.70
2018-01-30T00:35:28.218Z,5.60
2018-01-30T00:37:55.742Z,5.50
2018-01-30T00:40:23.247Z,5.60
2018-01-30T00:42:50.791Z,5.60
2018-01-30T00:45:18.314Z,5.60
2018-01-30T00:47:46.601Z,5.50
2018-01-30T00:50:14.902Z,5.60
2018-01-30T00:52:43.199Z,5.60
2018-01-30T00:55:10.735Z,5.60
2018-01-30T00:57:38.259Z,5.70
2018-01-30T01:00:05.762Z,5.60
2018-01-30T01:02:33.281Z,5.70
2018-01-30T01:05:00.821Z,5.80
2018-01-30T01:07:28.323Z,5.90
2018-01-30T01:09:55.842Z,6.00
2018-01-30T01:12:23.339Z,6.00
2018-01-30T01:14:50.866Z,6.00
2018-01-30T01:17:18.373Z,6.00
2018-01-30T01:19:45.906Z,6.00
2018-01-30T01:22:13.410Z,5.90
2018-01-30T01:24:40.938Z,6.00
2018-01-30T01:27:08.447Z,5.90
2018-01-30T01:29:35.991Z,5.90
2018-01-30T01:32:03.499Z,5.90
2018-01-30T01:34:31.036Z,6.00
2018-01-30T01:36:58.554Z,6.00
2018-01-30T01:39:26.055Z,5.90
2018-01-30T01:41:53.580Z,5.90
2018-01-30T01:44:21.088Z,5.90
2018-01-30T01:46:49.389Z,5.80
2018-01-30T01:49:16.900Z,5.80
2018-01-30T01:51:44.442Z,5.80
2018-01-30T01:54:11.950Z,5.80
2018-01-30T01:56:39.462Z,5.80
2018-01-30T01:59:07.755Z,5.80
2018-01-30T02:01:35.306Z,5.80
2018-01-30T02:04:03.570Z,5.70
2018-01-30T02:06:31.075Z,5.70
2018-01-30T02:08:59.382Z,5.70
2018-01-30T02:11:26.946Z,5.70
2018-01-30T02:13:54.487Z,5.60
2018-01-30T02:16:22.023Z,5.60
2018-01-30T02:18:49.568Z,5.60
2018-01-30T02:21:17.974Z,5.60
2018-01-30T02:23:45.483Z,5.70
2018-01-30T02:26:13.031Z,5.60
2018-01-30T02:28:40.538Z,5.60
2018-01-30T02:31:08.083Z,5.50
2018-01-30T02:33:35.593Z,5.50
2018-01-30T02:36:03.864Z,5.40
2018-01-30T02:38:31.403Z,5.40
2018-01-30T02:40:58.972Z,5.40
2018-01-30T02:43:26.511Z,5.30
2018-01-30T02:45:54.147Z,5.20
2018-01-30T02:48:21.656Z,5.20
2018-01-30T02:50:49.930Z,5.20
2018-01-30T02:53:18.234Z,5.00
2018-01-30T02:55:46.527Z,5.00
2018-01-30T02:58:14.071Z,5.00
2018-01-30T03:00:41.579Z,4.90
2018-01-30T03:03:09.123Z,4.90
2018-01-30T03:05:36.631Z,4.90
2018-01-30T03:08:04.183Z,4.90
2018-01-30T03:10:32.503Z,5.00
2018-01-30T03:13:00.017Z,5.00
2018-01-30T03:15:27.547Z,4.90
2018-01-30T03:17:55.054Z,4.80
2018-01-30T03:20:22.574Z,4.70
2018-01-30T03:22:50.078Z,4.60
2018-01-30T03:25:17.619Z,4.60
2018-01-30T03:27:45.156Z,4.50
2018-01-30T03:30:13.426Z,4.40
2018-01-30T03:32:40.962Z,4.40
2018-01-30T03:35:08.463Z,4.40
2018-01-30T03:37:35.998Z,4.40
2018-01-30T03:40:03.583Z,4.30
2018-01-30T03:42:31.110Z,4.30
2018-01-30T03:44:59.382Z,4.20
2018-01-30T03:47:26.906Z,4.20
2018-01-30T03:49:54.431Z,4.20
2018-01-30T03:52:21.958Z,4.20
2018-01-30T03:54:49.474Z,4.20
2018-01-30T03:57:17.009Z,4.10
2018-01-30T03:59:44.522Z,4.10
2018-01-30T04:02:12.796Z,4.10
2018-01-30T04:04:40.322Z,4.10
2018-01-30T04:07:07.828Z,4.10
2018-01-30T04:09:35.372Z,4.00
2018-01-30T04:12:02.898Z,4.00
2018-01-30T04:14:31.190Z,4.00
2018-01-30T04:16:59.486Z,4.00
2018-01-30T04:19:26.995Z,4.00
2018-01-30T04:21:54.535Z,4.00
2018-01-30T04:24:22.055Z,3.90
2018-01-30T04:26:49.582Z,3.90
2018-01-30T04:29:17.087Z,4.00
2018-01-30T04:31:44.628Z,4.00
2018-01-30T04:34:12.131Z,4.00
2018-01-30T04:36:40.398Z,3.90
2018-01-30T04:39:07.926Z,3.90
2018-01-30T04:41:35.437Z,3.90
2018-01-30T04:44:02.962Z,3.90
2018-01-30T04:46:30.472Z,3.90
2018-01-30T04:48:57.999Z,3.90
2018-01-30T04:51:25.598Z,3.90
2018-01-30T04:53:53.893Z,3.80
2018-01-30T04:56:22.163Z,3.80
2018-01-30T04:58:49.686Z,3.80
2018-01-30T05:01:17.219Z,3.80
2018-01-30T05:03:45.490Z,3.70
2018-01-30T05:06:13.025Z,3.70
2018-01-30T05:08:40.531Z,3.60
2018-01-30T05:11:08.090Z,3.70
2018-01-30T05:13:35.610Z,3.70
2018-01-30T05:16:03.134Z,3.60
2018-01-30T05:18:30.662Z,3.50
2018-01-30T05:20:58.187Z,3.40
2018-01-30T05:23:25.705Z,3.30
2018-01-30T05:25:53.234Z,3.30
2018-01-30T05:28:20.756Z,3.30
2018-01-30T05:30:48.282Z,3.40
2018-01-30T05:33:15.844Z,3.30
2018-01-30T05:35:43.347Z,3.30
2018-01-30T05:38:10.854Z,3.30
2018-01-30T05:40:38.391Z,3.20
2018-01-30T05:43:05.886Z,3.10
2018-01-30T05:45:33.436Z,3.10
2018-01-30T05:48:00.942Z,3.10
2018-01-30T05:50:28.478Z,3.10
2018-01-30T05:52:55.991Z,3.10
2018-01-30T05:55:23.492Z,3.00
2018-01-30T05:57:51.026Z,2.90
2018-01-30T06:00:18.521Z,3.00
2018-01-30T06:02:46.051Z,3.00
2018-01-30T06:05:13.562Z,3.00
2018-01-30T06:07:41.129Z,3.00
2018-01-30T06:10:10.146Z,2.90
2018-01-30T06:12:37.670Z,2.90
2018-01-30T06:15:05.179Z,2.80
2018-01-30T06:17:32.705Z,2.70
2018-01-30T06:20:00.214Z,2.70
2018-01-30T06:22:27.762Z,2.70
2018-01-30T06:24:55.258Z,2.60
2018-01-30T06:27:22.754Z,2.50
2018-01-30T06:29:51.066Z,2.60
2018-01-30T06:32:18.570Z,2.60
2018-01-30T06:34:46.118Z,2.60
2018-01-30T06:37:13.664Z,2.60
2018-01-30T06:39:41.959Z,2.90
2018-01-30T06:42:10.223Z,3.00
2018-01-30T06:44:37.756Z,3.00
2018-01-30T06:47:05.266Z,2.90
2018-01-30T06:49:32.805Z,2.90
2018-01-30T06:52:00.310Z,2.80
2018-01-30T06:54:27.841Z,3.00
2018-01-30T06:56:55.370Z,3.20
2018-01-30T06:59:23.660Z,3.40
2018-01-30T07:01:51.950Z,3.30
2018-01-30T07:04:20.218Z,3.20
2018-01-30T07:06:47.723Z,3.20
2018-01-30T07:09:15.255Z,3.10
2018-01-30T07:11:42.782Z,2.90
2018-01-30T07:14:10.310Z,3.00
2018-01-30T07:16:37.821Z,3.00
2018-01-30T07:19:05.351Z,3.00
2018-01-30T07:21:32.850Z,3.00
2018-01-30T07:24:00.396Z,3.10
2018-01-30T07:26:27.910Z,3.10
2018-01-30T07:28:55.411Z,3.10
2018-01-30T07:31:22.935Z,3.20
2018-01-30T07:33:50.448Z,3.20
2018-01-30T07:36:17.982Z,3.20
2018-01-30T07:38:45.514Z,3.10
2018-01-30T07:41:13.019Z,3.20
2018-01-30T07:43:41.311Z,3.40
2018-01-30T07:46:08.807Z,3.40
2018-01-30T07:48:36.311Z,3.50
2018-01-30T07:51:03.842Z,3.60
2018-01-30T07:53:31.338Z,3.70
2018-01-30T07:55:58.863Z,3.80
2018-01-30T07:58:26.361Z,3.80
2018-01-30T08:00:53.887Z,4.00
2018-01-30T08:03:22.179Z,3.80
2018-01-30T08:05:50.455Z,3.80
2018-01-30T08:08:17.983Z,3.80
2018-01-30T08:10:45.479Z,3.80
2018-01-30T08:13:12.998Z,3.90
2018-01-30T08:15:40.540Z,4.10
2018-01-30T08:18:08.051Z,4.20
2018-01-30T08:20:35.611Z,4.40
2018-01-30T08:23:03.121Z,4.50
2018-01-30T08:25:30.622Z,4.50
2018-01-30T08:27:58.146Z,4.60
2018-01-30T08:30:25.642Z,4.70
2018-01-30T08:32:53.171Z,4.80
2018-01-30T08:35:20.676Z,4.80
2018-01-30T08:37:48.195Z,4.90
2018-01-30T08:40:15.721Z,4.90
2018-01-30T08:42:43.273Z,5.10
2018-01-30T08:45:10.784Z,5.10
2018-01-30T08:47:38.286Z,5.10
2018-01-30T08:50:06.582Z,5.20
2018-01-30T08:52:34.083Z,5.20
2018-01-30T08:55:01.611Z,5.30
2018-01-30T08:57:29.127Z,5.30
2018-01-30T08:59:56.661Z,5.30
2018-01-30T09:02:24.930Z,5.40
2018-01-30T09:04:52.455Z,5.40
2018-01-30T09:07:19.963Z,5.50
2018-01-30T09:09:47.502Z,5.50
2018-01-30T09:12:15.022Z,5.60
2018-01-30T09:14:43.318Z,5.50
2018-01-30T09:17:11.583Z,5.60
2018-01-30T09:19:39.124Z,5.60
2018-01-30T09:22:06.637Z,5.70
2018-01-30T09:24:34.140Z,5.80
2018-01-30T09:27:01.659Z,5.60
2018-01-30T09:29:29.159Z,5.60
2018-01-30T09:31:57.463Z,5.40
2018-01-30T09:34:25.739Z,5.40
2018-01-30T09:36:54.034Z,5.40
2018-01-30T09:39:22.311Z,5.50
2018-01-30T09:41:50.613Z,5.50
2018-01-30T09:44:18.875Z,5.50
2018-01-30T09:46:46.376Z,5.60
2018-01-30T09:49:14.672Z,5.50
2018-01-30T09:51:42.179Z,5.50
2018-01-30T09:54:09.703Z,5.50
2018-01-30T09:56:38.002Z,5.50
2018-01-30T09:59:06.303Z,5.70
2018-01-30T10:01:33.840Z,5.70
2018-01-30T10:04:01.366Z,5.70
2018-01-30T10:06:28.857Z,5.70
2018-01-30T10:08:56.381Z,5.80
2018-01-30T10:11:23.882Z,5.80
2018-01-30T10:13:51.415Z,5.80
2018-01-30T10:16:19.706Z,6.00
2018-01-30T10:18:47.975Z,6.00
2018-01-30T10:21:15.514Z,6.00
2018-01-30T10:23:43.014Z,6.00
2018-01-30T10:26:10.550Z,6.10
2018-01-30T10:28:38.055Z,6.10
2018-01-30T10:31:05.590Z,6.00
2018-01-30T10:33:33.098Z,6.10
2018-01-30T10:36:00.626Z,6.10
2018-01-30T10:38:28.135Z,6.20
2018-01-30T10:40:55.661Z,6.20
2018-01-30T10:43:23.189Z,6.30
2018-01-30T10:45:51.490Z,6.50
2018-01-30T10:48:19.750Z,6.60
2018-01-30T10:50:47.294Z,6.50
2018-01-30T10:53:14.826Z,6.60
2018-01-30T10:55:43.098Z,6.50
2018-01-30T10:58:10.606Z,6.50
2018-01-30T11:00:38.137Z,6.60
2018-01-30T11:03:05.644Z,6.60
2018-01-30T11:05:33.173Z,6.60
2018-01-30T11:08:00.711Z,6.70
2018-01-30T11:10:28.238Z,6.80
2018-01-30T11:12:56.534Z,7.10
2018-01-30T11:15:24.035Z,7.00
2018-01-30T11:17:51.578Z,7.20
2018-01-30T11:20:19.094Z,7.20
2018-01-30T11:22:46.608Z,7.30
2018-01-30T11:25:14.926Z,7.40
2018-01-30T11:27:42.444Z,7.40
2018-01-30T11:30:09.974Z,7.50
2018-01-30T11:32:37.494Z,7.40
2018-01-30T11:35:05.038Z,7.40
2018-01-30T11:37:32.542Z,7.40
2018-01-30T11:40:00.052Z,7.30
2018-01-30T11:42:27.578Z,7.30
2018-01-30T11:44:55.083Z,7.30
2018-01-30T11:47:22.615Z,7.30
2018-01-30T11:49:50.158Z,7.40
2018-01-30T11:52:17.695Z,7.40
2018-01-30T11:54:45.194Z,7.50
2018-01-30T11:57:12.698Z,7.50
2018-01-30T11:59:40.227Z,7.50
2018-01-30T12:02:07.726Z,7.60
2018-01-30T12:04:35.253Z,7.60
2018-01-30T12:07:02.778Z,7.70
2018-01-30T12:09:30.279Z,7.60
2018-01-30T12:11:58.570Z,7.70
2018-01-30T12:14:26.077Z,7.70
2018-01-30T12:16:53.605Z,7.70
2018-01-30T12:19:21.131Z,7.70
2018-01-30T12:21:48.710Z,7.80
2018-01-30T12:24:16.219Z,7.80
2018-01-30T12:26:44.485Z,8.00
2018-01-30T12:29:12.010Z,8.00
2018-01-30T12:31:39.506Z,8.10
2018-01-30T12:34:07.034Z,8.10
2018-01-30T12:36:35.320Z,7.90
2018-01-30T12:39:03.618Z,8.00
2018-01-30T12:41:31.882Z,8.00
2018-01-30T12:43:59.413Z,8.00
2018-01-30T12:46:26.919Z,8.00
2018-01-30T12:48:54.466Z,8.00
2018-01-30T12:51:21.987Z,8.10
2018-01-30T12:53:49.520Z,8.30
2018-01-30T12:56:17.032Z,8.30
2018-01-30T12:58:44.527Z,8.30
2018-01-30T13:01:12.087Z,8.30
2018-01-30T13:03:39.616Z,8.30
2018-01-30T13:06:07.130Z,8.30
2018-01-30T13:08:34.658Z,8.40
2018-01-30T13:11:02.229Z,8.50
2018-01-30T13:13:29.957Z,8.40
2018-01-30T13:15:59.051Z,8.40
2018-01-30T13:18:34.834Z,8.50
2018-01-30T13:21:03.876Z,8.60
2018-01-30T13:23:35.158Z,8.70
2018-01-30T13:26:02.865Z,8.80
2018-01-30T13:28:34.449Z,8.60
2018-01-30T13:31:03.754Z,8.60
2018-01-30T13:33:34.610Z,8.70
2018-01-30T13:36:04.537Z,8.70
2018-01-30T13:38:37.425Z,8.70
2018-01-30T13:41:12.737Z,8.70
2018-01-30T13:43:46.038Z,8.90
2018-01-30T13:46:17.816Z,8.90
2018-01-30T13:48:52.914Z,9.00
2018-01-30T13:51:20.871Z,9.00
2018-01-30T13:53:53.616Z,9.00
2018-01-30T13:56:28.174Z,9.10
2018-01-30T13:58:59.417Z,8.90
2018-01-30T14:01:31.080Z,8.80
2018-01-30T14:03:59.640Z,8.80
2018-01-30T14:06:28.916Z,8.70
2018-01-30T14:09:00.923Z,8.70
2018-01-30T14:11:28.418Z,8.60
2018-01-30T14:13:59.345Z,8.60
2018-01-30T14:16:32.113Z,8.60
2018-01-30T14:19:03.669Z,8.60
2018-01-30T14:21:34.080Z,8.50
2018-01-30T14:24:01.719Z,8.50
2018-01-30T14:26:32.493Z,8.40
2018-01-30T14:29:00.183Z,8.30
2018-01-30T14:31:27.711Z,8.20
2018-01-30T14:33:55.228Z,8.30
2018-01-30T14:36:23.705Z,8.30
2018-01-30T14:38:51.220Z,8.40
2018-01-30T14:41:18.750Z,8.50
2018-01-30T14:43:46.248Z,8.60
2018-01-30T14:46:13.778Z,8.60
2018-01-30T14:48:50.861Z,8.70
2018-01-30T14:51:22.039Z,8.70
2018-01-30T14:54:00.466Z,8.70
2018-01-30T14:56:38.606Z,8.60
2018-01-30T15:02:01.021Z,8.40
2018-01-30T15:04:40.620Z,8.40
2018-01-30T15:07:10.107Z,8.40
2018-01-30T15:09:55.014Z,8.30
2018-01-30T15:12:29.462Z,8.40
2018-01-30T15:15:08.238Z,8.40
2018-01-30T15:17:52.540Z,8.30
2018-01-30T15:20:21.574Z,8.40
2018-01-30T15:22:56.986Z,8.40
2018-01-30T15:25:25.003Z,8.30
2018-01-30T15:28:03.839Z,8.30
2018-01-30T15:30:48.312Z,8.30
2018-01-30T15:33:21.305Z,8.30
2018-01-30T15:35:49.198Z,8.30
2018-01-30T15:38:16.705Z,8.30
2018-01-30T15:40:48.416Z,8.10
2018-01-30T15:43:15.926Z,8.10
2018-01-30T15:45:43.458Z,8.00
2018-01-30T15:48:11.726Z,8.10
2018-01-30T15:50:39.262Z,8.10
2018-01-30T15:53:08.373Z,8.00
2018-01-30T15:55:35.921Z,8.00
2018-01-30T15:58:03.427Z,7.90
2018-01-30T16:00:30.940Z,7.90
2018-01-30T16:02:58.511Z,7.80
2018-01-30T16:05:26.018Z,7.80
2018-01-30T16:07:53.552Z,7.70
2018-01-30T16:10:22.368Z,7.70
2018-01-30T16:12:49.911Z,7.70
2018-01-30T16:15:17.441Z,7.70
2018-01-30T16:17:48.934Z,7.60
2018-01-30T16:20:16.477Z,7.50
2018-01-30T16:22:43.989Z,7.50
2018-01-30T16:25:11.493Z,7.50
2018-01-30T16:27:39.049Z,7.40
2018-01-30T16:30:07.519Z,7.40
2018-01-30T16:32:35.076Z,7.30
2018-01-30T16:35:03.182Z,7.20
2018-01-30T16:37:30.708Z,7.10
2018-01-30T16:39:58.215Z,7.00
2018-01-30T16:42:25.748Z,7.00
2018-01-30T16:44:53.251Z,6.90
2018-01-30T16:47:20.815Z,6.80
2018-01-30T16:49:49.666Z,6.70
2018-01-30T16:52:19.131Z,6.70
2018-01-30T16:54:46.638Z,6.60
2018-01-30T16:57:14.177Z,6.60
2018-01-30T16:59:41.686Z,6.50
2018-01-30T17:02:10.935Z,6.70
2018-01-30T17:04:38.475Z,6.70
2018-01-30T17:07:06.923Z,6.80
2018-01-30T17:09:35.193Z,6.50
2018-01-30T17:12:03.495Z,6.50
2018-01-30T17:14:31.033Z,6.50
2018-01-30T17:16:59.333Z,6.30
2018-01-30T17:19:26.854Z,6.30
2018-01-30T17:21:55.162Z,6.20
2018-01-30T17:24:22.707Z,6.20
2018-01-30T17:26:50.268Z,6.20
2018-01-30T17:29:17.798Z,6.10
2018-01-30T17:31:45.919Z,6.10
2018-01-30T17:34:13.433Z,6.10
2018-01-30T17:36:41.730Z,6.30
2018-01-30T17:39:09.354Z,6.20
2018-01-30T17:41:37.705Z,6.30
2018-01-30T17:44:06.568Z,6.30
2018-01-30T17:46:34.094Z,6.50
2018-01-30T17:49:03.615Z,6.50
2018-01-30T17:51:31.986Z,6.50
2018-01-30T17:54:00.263Z,6.40
2018-01-30T17:56:27.786Z,6.40
2018-01-30T17:58:55.331Z,6.60
2018-01-30T18:01:22.871Z,6.70
2018-01-30T18:03:50.339Z,6.70
2018-01-30T18:06:17.878Z,6.80
2018-01-30T18:08:45.487Z,6.80
2018-01-30T18:11:14.376Z,6.80
2018-01-30T18:13:42.645Z,6.90
2018-01-30T18:16:10.160Z,6.90
2018-01-30T18:18:37.712Z,6.90
2018-01-30T18:21:07.052Z,6.90
2018-01-30T18:23:34.604Z,6.90
2018-01-30T18:26:02.172Z,7.00
2018-01-30T18:28:29.696Z,7.00
2018-01-30T18:30:57.257Z,7.00
2018-01-30T18:33:25.593Z,7.00
2018-01-30T18:35:54.781Z,7.00
2018-01-30T18:38:24.043Z,6.90
2018-01-30T18:40:51.591Z,7.00
2018-01-30T18:43:19.658Z,7.00
2018-01-30T18:45:47.186Z,7.00
2018-01-30T18:48:14.691Z,6.90
2018-01-30T18:50:42.677Z,6.80
2018-01-30T18:53:11.519Z,6.70
2018-01-30T18:55:39.057Z,6.70
2018-01-30T18:58:06.620Z,6.70
2018-01-30T19:00:34.966Z,6.60
2018-01-30T19:03:03.270Z,6.50
2018-01-30T19:05:31.066Z,6.50
2018-01-30T19:07:58.622Z,6.50
2018-01-30T19:10:26.991Z,6.40
2018-01-30T19:12:54.542Z,6.40
2018-01-30T19:15:22.044Z,6.40
2018-01-30T19:17:49.595Z,6.40
2018-01-30T19:20:21.666Z,6.30
2018-01-30T19:22:50.073Z,6.20
2018-01-30T19:25:17.583Z,6.20
2018-01-30T19:27:45.111Z,6.20
2018-01-30T19:30:12.642Z,6.20
2018-01-30T19:32:40.172Z,6.20
2018-01-30T19:35:08.425Z,6.20
2018-01-30T19:37:36.743Z,6.00
2018-01-30T19:40:05.057Z,5.90
2018-01-30T19:42:32.565Z,5.90
2018-01-30T19:45:00.875Z,5.90
2018-01-30T19:47:28.384Z,5.90
2018-01-30T19:49:56.811Z,5.90
2018-01-30T19:52:24.330Z,5.90
2018-01-30T19:54:53.504Z,5.90
2018-01-30T19:57:21.008Z,5.90
2018-01-30T19:59:48.518Z,5.90
2018-01-30T20:02:16.813Z,6.00
2018-01-30T20:04:44.342Z,6.00
2018-01-30T20:07:12.822Z,5.90
2018-01-30T20:09:40.293Z,5.90
2018-01-30T20:12:09.417Z,6.00
2018-01-30T20:14:36.918Z,6.00
2018-01-30T20:17:04.431Z,6.00
2018-01-30T20:19:33.586Z,6.00
2018-01-30T20:22:01.099Z,6.10
2018-01-30T20:24:28.634Z,6.20
2018-01-30T20:26:56.937Z,6.30
2018-01-30T20:29:24.442Z,6.30
2018-01-30T20:31:51.983Z,6.20
2018-01-30T20:34:19.492Z,6.20
2018-01-30T20:36:47.035Z,6.20
2018-01-30T20:39:15.330Z,6.30
2018-01-30T20:41:42.845Z,6.30
2018-01-30T20:44:10.396Z,6.20
2018-01-30T20:46:37.897Z,6.30
2018-01-30T20:49:05.402Z,6.40
2018-01-30T20:51:33.887Z,6.50
2018-01-30T20:54:01.391Z,6.50
2018-01-30T20:56:29.824Z,6.60
2018-01-30T20:58:58.203Z,6.50
2018-01-30T21:01:25.742Z,6.50
2018-01-30T21:03:54.039Z,6.70
2018-01-30T21:06:21.603Z,6.60
2018-01-30T21:08:50.090Z,6.60
2018-01-30T21:11:17.640Z,6.70
2018-01-30T21:13:47.947Z,6.70
2018-01-30T21:16:15.942Z,6.80
2018-01-30T21:18:44.212Z,6.90
2018-01-30T21:21:12.476Z,6.90
2018-01-30T21:23:39.998Z,6.90
2018-01-30T21:26:07.548Z,7.00
2018-01-30T21:28:35.068Z,7.00
2018-01-30T21:31:03.482Z,7.20
2018-01-30T21:33:30.982Z,7.20
2018-01-30T21:35:58.546Z,7.20
2018-01-30T21:38:26.054Z,7.30
2018-01-30T21:40:53.560Z,7.30
2018-01-30T21:43:21.907Z,7.30
2018-01-30T21:45:49.428Z,7.40
2018-01-30T21:48:17.047Z,7.30
2018-01-30T21:50:44.547Z,7.40
2018-01-30T21:53:12.094Z,7.40
2018-01-30T21:55:40.821Z,7.50
2018-01-30T21:58:08.324Z,7.50
2018-01-30T22:00:36.622Z,7.60
2018-01-30T22:03:04.148Z,7.60
2018-01-30T22:05:32.441Z,7.50
2018-01-30T22:07:59.992Z,7.50
2018-01-30T22:10:29.086Z,7.40
2018-01-30T22:12:57.444Z,7.40
2018-01-30T22:15:24.994Z,7.40
2018-01-30T22:17:52.495Z,7.30
2018-01-30T22:20:20.587Z,7.30
2018-01-30T22:22:48.102Z,7.30
2018-01-30T22:25:16.387Z,7.30
2018-01-30T22:27:44.680Z,7.40
2018-01-30T22:30:12.211Z,7.40
2018-01-30T22:32:40.492Z,7.30
2018-01-30T22:35:08.024Z,7.30
2018-01-30T22:37:35.542Z,7.40
2018-01-30T22:40:03.105Z,7.30
2018-01-30T22:42:30.838Z,7.30
2018-01-30T22:44:58.367Z,7.40
